sensor_id;sensor_type;location;lat;lon;timestamp;pressure;altitude;pressure_sealevel;temperature;humidity
17254;BME280;32542;52.832;13.816;2022-08-21T00:01:52;101435.97;;;25.28;61.06
17254;BME280;32542;52.832;13.816;2022-08-21T00:04:55;101434.25;;;25.27;61.13
17254;BME280;32542;52.832;13.816;2022-08-21T00:07:59;101434.25;;;25.27;61.05
17254;BME280;32542;52.832;13.816;2022-08-21T00:11:02;101427.16;;;25.26;61.28
17254;BME280;32542;52.832;13.816;2022-08-21T00:14:08;101428.13;;;25.25;61.19
17254;BME280;32542;52.832;13.816;2022-08-21T00:17:12;101419.22;;;25.25;61.36
17254;BME280;32542;52.832;13.816;2022-08-21T00:20:16;101417.47;;;25.24;60.95
17254;BME280;32542;52.832;13.816;2022-08-21T00:23:19;101422.81;;;25.24;60.95
17254;BME280;32542;52.832;13.816;2022-08-21T00:26:22;101417.47;;;25.24;61.02
17254;BME280;32542;52.832;13.816;2022-08-21T00:29:27;101419.31;;;25.23;61.18
17254;BME280;32542;52.832;13.816;2022-08-21T00:32:29;101412.97;;;25.24;61.09
17254;BME280;32542;52.832;13.816;2022-08-21T00:35:36;101420.25;;;25.22;60.89
17254;BME280;32542;52.832;13.816;2022-08-21T00:38:40;101409.50;;;25.22;60.99
17254;BME280;32542;52.832;13.816;2022-08-21T00:41:43;101411.41;;;25.20;61.25
17254;BME280;32542;52.832;13.816;2022-08-21T00:44:49;101413.31;;;25.18;61.11
17254;BME280;32542;52.832;13.816;2022-08-21T00:47:52;101409.88;;;25.16;61.04
17254;BME280;32542;52.832;13.816;2022-08-21T00:51:00;101411.75;;;25.14;60.98
17254;BME280;32542;52.832;13.816;2022-08-21T00:54:05;101403.81;;;25.13;60.90
17254;BME280;32542;52.832;13.816;2022-08-21T00:57:22;101410.22;;;25.10;61.05
17254;BME280;32542;52.832;13.816;2022-08-21T01:00:32;101410.31;;;25.09;60.86
17254;BME280;32542;52.832;13.816;2022-08-21T01:03:36;101419.28;;;25.08;60.91
17254;BME280;32542;52.832;13.816;2022-08-21T01:06:45;101410.38;;;25.07;60.74
17254;BME280;32542;52.832;13.816;2022-08-21T01:09:48;101416.59;;;25.08;60.64
17254;BME280;32542;52.832;13.816;2022-08-21T01:12:52;101419.38;;;25.06;60.55
17254;BME280;32542;52.832;13.816;2022-08-21T01:15:59;101424.75;;;25.06;60.72
17254;BME280;32542;52.832;13.816;2022-08-21T01:19:03;101417.63;;;25.05;60.44
17254;BME280;32542;52.832;13.816;2022-08-21T01:22:08;101427.47;;;25.05;60.31
17254;BME280;32542;52.832;13.816;2022-08-21T01:25:13;101426.63;;;25.04;60.29
17254;BME280;32542;52.832;13.816;2022-08-21T01:28:17;101425.78;;;25.04;60.15
17254;BME280;32542;52.832;13.816;2022-08-21T01:31:22;101428.34;;;25.05;60.06
17254;BME280;32542;52.832;13.816;2022-08-21T01:34:27;101435.63;;;25.03;59.89
17254;BME280;32542;52.832;13.816;2022-08-21T01:37:31;101430.25;;;25.03;59.81
17254;BME280;32542;52.832;13.816;2022-08-21T01:40:34;101439.16;;;25.04;59.95
17254;BME280;32542;52.832;13.816;2022-08-21T01:43:37;101432.00;;;25.04;59.71
17254;BME280;32542;52.832;13.816;2022-08-21T01:46:40;101426.63;;;25.04;59.77
17254;BME280;32542;52.832;13.816;2022-08-21T01:49:44;101436.50;;;25.04;59.71
17254;BME280;32542;52.832;13.816;2022-08-21T01:52:49;101432.00;;;25.04;59.86
17254;BME280;32542;52.832;13.816;2022-08-21T01:55:52;101429.31;;;25.04;59.85
17254;BME280;32542;52.832;13.816;2022-08-21T01:58:55;101435.63;;;25.03;59.88
17254;BME280;32542;52.832;13.816;2022-08-21T02:01:58;101443.56;;;25.05;59.64
17254;BME280;32542;52.832;13.816;2022-08-21T02:05:02;101443.56;;;25.05;59.58
17254;BME280;32542;52.832;13.816;2022-08-21T02:08:07;101438.28;;;25.03;59.61
17254;BME280;32542;52.832;13.816;2022-08-21T02:11:10;101439.25;;;25.02;59.65
17254;BME280;32542;52.832;13.816;2022-08-21T02:14:14;101438.38;;;25.02;59.55
17254;BME280;32542;52.832;13.816;2022-08-21T02:17:40;101433.91;;;25.02;59.61
17254;BME280;32542;52.832;13.816;2022-08-21T02:20:46;101437.50;;;25.01;59.50
17254;BME280;32542;52.832;13.816;2022-08-21T02:23:57;101443.75;;;25.02;59.40
17254;BME280;32542;52.832;13.816;2022-08-21T02:27:00;101442.00;;;25.01;59.48
17254;BME280;32542;52.832;13.816;2022-08-21T02:30:04;101433.97;;;25.01;59.63
17254;BME280;32542;52.832;13.816;2022-08-21T02:33:08;101425.09;;;25.00;59.46
17254;BME280;32542;52.832;13.816;2022-08-21T02:36:13;101433.97;;;25.01;59.47
17254;BME280;32542;52.832;13.816;2022-08-21T02:39:17;101430.44;;;25.00;59.27
17254;BME280;32542;52.832;13.816;2022-08-21T02:42:28;101428.69;;;24.99;59.38
17254;BME280;32542;52.832;13.816;2022-08-21T02:45:32;101423.34;;;24.99;59.24
17254;BME280;32542;52.832;13.816;2022-08-21T02:48:36;101420.75;;;24.98;59.01
17254;BME280;32542;52.832;13.816;2022-08-21T02:51:39;101421.63;;;24.98;59.11
17254;BME280;32542;52.832;13.816;2022-08-21T02:54:44;101421.69;;;24.97;59.01
17254;BME280;32542;52.832;13.816;2022-08-21T02:57:47;101423.50;;;24.96;58.75
17254;BME280;32542;52.832;13.816;2022-08-21T03:00:51;101427.13;;;24.95;58.85
17254;BME280;32542;52.832;13.816;2022-08-21T03:03:54;101425.38;;;24.94;58.97
17254;BME280;32542;52.832;13.816;2022-08-21T03:06:57;101430.75;;;24.94;58.62
17254;BME280;32542;52.832;13.816;2022-08-21T03:10:02;101426.34;;;24.93;58.67
17254;BME280;32542;52.832;13.816;2022-08-21T03:13:06;101423.69;;;24.93;58.71
17254;BME280;32542;52.832;13.816;2022-08-21T03:16:09;101428.16;;;24.93;58.64
17254;BME280;32542;52.832;13.816;2022-08-21T03:19:12;101428.16;;;24.93;58.33
17254;BME280;32542;52.832;13.816;2022-08-21T03:22:15;101422.91;;;24.91;58.65
17254;BME280;32542;52.832;13.816;2022-08-21T03:25:21;101425.47;;;24.93;58.31
17254;BME280;32542;52.832;13.816;2022-08-21T03:28:41;101431.81;;;24.92;58.55
17254;BME280;32542;52.832;13.816;2022-08-21T03:31:44;101427.28;;;24.92;58.56
17254;BME280;32542;52.832;13.816;2022-08-21T03:34:47;101422.91;;;24.91;58.50
17254;BME280;32542;52.832;13.816;2022-08-21T03:37:50;101430.94;;;24.91;58.24
17254;BME280;32542;52.832;13.816;2022-08-21T03:40:55;101423.81;;;24.90;58.29
17254;BME280;32542;52.832;13.816;2022-08-21T03:43:58;101433.72;;;24.90;57.94
17254;BME280;32542;52.832;13.816;2022-08-21T03:47:02;101436.38;;;24.90;57.95
17254;BME280;32542;52.832;13.816;2022-08-21T03:50:06;101436.44;;;24.88;57.99
17254;BME280;32542;52.832;13.816;2022-08-21T03:53:11;101429.38;;;24.87;58.06
17254;BME280;32542;52.832;13.816;2022-08-21T03:56:19;101428.50;;;24.87;57.85
17254;BME280;32542;52.832;13.816;2022-08-21T03:59:23;101433.00;;;24.86;57.87
17254;BME280;32542;52.832;13.816;2022-08-21T04:02:27;101432.13;;;24.86;57.55
17254;BME280;32542;52.832;13.816;2022-08-21T04:05:30;101424.16;;;24.84;57.72
17254;BME280;32542;52.832;13.816;2022-08-21T04:08:34;101428.66;;;24.84;57.58
17254;BME280;32542;52.832;13.816;2022-08-21T04:11:39;101433.09;;;24.85;57.62
17254;BME280;32542;52.832;13.816;2022-08-21T04:14:42;101435.84;;;24.83;57.71
17254;BME280;32542;52.832;13.816;2022-08-21T04:17:45;101443.88;;;24.83;57.37
17254;BME280;32542;52.832;13.816;2022-08-21T04:20:50;101440.25;;;24.84;57.18
17254;BME280;32542;52.832;13.816;2022-08-21T04:23:54;101439.47;;;24.82;57.25
17254;BME280;32542;52.832;13.816;2022-08-21T04:26:58;101439.47;;;24.82;57.33
17254;BME280;32542;52.832;13.816;2022-08-21T04:30:03;101442.22;;;24.81;57.23
17254;BME280;32542;52.832;13.816;2022-08-21T04:33:06;101436.09;;;24.78;57.18
17254;BME280;32542;52.832;13.816;2022-08-21T04:36:10;101439.66;;;24.79;57.08
17254;BME280;32542;52.832;13.816;2022-08-21T04:39:13;101434.34;;;24.77;56.97
17254;BME280;32542;52.832;13.816;2022-08-21T04:42:18;101431.75;;;24.76;56.93
17254;BME280;32542;52.832;13.816;2022-08-21T04:45:24;101435.38;;;24.75;56.90
17254;BME280;32542;52.832;13.816;2022-08-21T04:48:27;101437.25;;;24.73;56.89
17254;BME280;32542;52.832;13.816;2022-08-21T04:51:32;101440.88;;;24.72;56.78
17254;BME280;32542;52.832;13.816;2022-08-21T04:54:36;101432.06;;;24.70;56.90
17254;BME280;32542;52.832;13.816;2022-08-21T04:57:41;101442.88;;;24.68;56.76
17254;BME280;32542;52.832;13.816;2022-08-21T05:00:52;101438.44;;;24.67;56.64
17254;BME280;32542;52.832;13.816;2022-08-21T05:03:58;101442.94;;;24.67;56.80
17254;BME280;32542;52.832;13.816;2022-08-21T05:07:04;101442.94;;;24.67;56.68
17254;BME280;32542;52.832;13.816;2022-08-21T05:10:08;101443.91;;;24.66;56.83
17254;BME280;32542;52.832;13.816;2022-08-21T05:13:16;101436.69;;;24.66;56.61
17254;BME280;32542;52.832;13.816;2022-08-21T05:16:19;101443.03;;;24.65;56.66
17254;BME280;32542;52.832;13.816;2022-08-21T05:19:38;101443.09;;;24.64;56.73
17254;BME280;32542;52.832;13.816;2022-08-21T05:22:41;101434.28;;;24.62;56.53
17254;BME280;32542;52.832;13.816;2022-08-21T05:25:44;101444.22;;;24.60;56.64
17254;BME280;32542;52.832;13.816;2022-08-21T05:28:50;101441.59;;;24.58;56.50
17254;BME280;32542;52.832;13.816;2022-08-21T05:31:53;101445.25;;;24.57;56.56
17254;BME280;32542;52.832;13.816;2022-08-21T05:34:57;101447.94;;;24.57;56.71
17254;BME280;32542;52.832;13.816;2022-08-21T05:38:00;101445.16;;;24.59;56.74
17254;BME280;32542;52.832;13.816;2022-08-21T05:41:04;101452.41;;;24.57;56.83
17254;BME280;32542;52.832;13.816;2022-08-21T05:44:08;101457.75;;;24.57;56.85
17254;BME280;32542;52.832;13.816;2022-08-21T05:47:12;101457.75;;;24.57;56.87
17254;BME280;32542;52.832;13.816;2022-08-21T05:50:15;101458.63;;;24.57;56.64
17254;BME280;32542;52.832;13.816;2022-08-21T05:53:19;101457.66;;;24.58;56.74
17254;BME280;32542;52.832;13.816;2022-08-21T05:56:23;101459.50;;;24.58;56.66
17254;BME280;32542;52.832;13.816;2022-08-21T05:59:27;101465.81;;;24.57;56.56
17254;BME280;32542;52.832;13.816;2022-08-21T06:02:30;101457.75;;;24.57;56.70
17254;BME280;32542;52.832;13.816;2022-08-21T06:05:33;101464.94;;;24.56;56.69
17254;BME280;32542;52.832;13.816;2022-08-21T06:08:38;101463.28;;;24.54;56.76
17254;BME280;32542;52.832;13.816;2022-08-21T06:11:41;101465.16;;;24.52;56.76
17254;BME280;32542;52.832;13.816;2022-08-21T06:14:45;101469.72;;;24.50;56.79
17254;BME280;32542;52.832;13.816;2022-08-21T06:17:49;101477.75;;;24.50;56.32
17254;BME280;32542;52.832;13.816;2022-08-21T06:20:52;101474.47;;;24.45;56.33
17254;BME280;32542;52.832;13.816;2022-08-21T06:23:55;101478.09;;;24.44;56.33
17254;BME280;32542;52.832;13.816;2022-08-21T06:27:03;101471.94;;;24.42;56.69
17254;BME280;32542;52.832;13.816;2022-08-21T06:30:11;101474.63;;;24.42;56.32
17254;BME280;32542;52.832;13.816;2022-08-21T06:33:14;101464.88;;;24.41;56.37
17254;BME280;32542;52.832;13.816;2022-08-21T06:36:19;101473.94;;;24.38;56.26
17254;BME280;32542;52.832;13.816;2022-08-21T06:39:22;101472.28;;;24.36;56.42
17254;BME280;32542;52.832;13.816;2022-08-21T06:42:32;101467.00;;;24.34;56.54
17254;BME280;32542;52.832;13.816;2022-08-21T06:45:37;101476.84;;;24.34;56.28
17254;BME280;32542;52.832;13.816;2022-08-21T06:48:40;101473.38;;;24.32;56.33
17254;BME280;32542;52.832;13.816;2022-08-21T06:51:43;101478.81;;;24.30;56.10
17254;BME280;32542;52.832;13.816;2022-08-21T06:54:46;101477.16;;;24.28;56.36
17254;BME280;32542;52.832;13.816;2022-08-21T06:57:49;101478.09;;;24.27;56.03
17254;BME280;32542;52.832;13.816;2022-08-21T07:00:54;101482.66;;;24.25;56.07
17254;BME280;32542;52.832;13.816;2022-08-21T07:04:02;101468.50;;;24.23;56.04
17254;BME280;32542;52.832;13.816;2022-08-21T07:07:05;101469.44;;;24.22;56.34
17254;BME280;32542;52.832;13.816;2022-08-21T07:10:08;101472.13;;;24.22;56.02
17254;BME280;32542;52.832;13.816;2022-08-21T07:13:23;101472.19;;;24.20;56.37
17254;BME280;32542;52.832;13.816;2022-08-21T07:16:28;101482.97;;;24.19;56.01
17254;BME280;32542;52.832;13.816;2022-08-21T07:19:31;101490.06;;;24.20;56.00
17254;BME280;32542;52.832;13.816;2022-08-21T07:22:35;101490.91;;;24.20;55.96
17254;BME280;32542;52.832;13.816;2022-08-21T07:25:39;101488.31;;;24.19;56.13
17254;BME280;32542;52.832;13.816;2022-08-21T07:28:42;101490.06;;;24.20;56.02
17254;BME280;32542;52.832;13.816;2022-08-21T07:31:47;101482.97;;;24.19;55.97
17254;BME280;32542;52.832;13.816;2022-08-21T07:34:51;101480.22;;;24.20;55.96
17254;BME280;32542;52.832;13.816;2022-08-21T07:37:54;101479.38;;;24.20;56.17
17254;BME280;32542;52.832;13.816;2022-08-21T07:40:59;101474.00;;;24.20;55.98
17254;BME280;32542;52.832;13.816;2022-08-21T07:44:03;101475.88;;;24.18;56.24
17254;BME280;32542;52.832;13.816;2022-08-21T07:47:09;101472.41;;;24.16;55.98
17254;BME280;32542;52.832;13.816;2022-08-21T07:50:14;101468.00;;;24.15;55.98
17254;BME280;32542;52.832;13.816;2022-08-21T07:53:17;101468.94;;;24.14;56.18
17254;BME280;32542;52.832;13.816;2022-08-21T07:56:21;101463.78;;;24.11;55.96
17254;BME280;32542;52.832;13.816;2022-08-21T07:59:24;101462.03;;;24.10;56.23
17254;BME280;32542;52.832;13.816;2022-08-21T08:02:29;101468.38;;;24.07;56.27
17254;BME280;32542;52.832;13.816;2022-08-21T08:05:33;101473.75;;;24.07;55.98
17254;BME280;32542;52.832;13.816;2022-08-21T08:08:39;101480.06;;;24.06;56.40
17254;BME280;32542;52.832;13.816;2022-08-21T08:11:43;101480.84;;;24.08;56.32
17254;BME280;32542;52.832;13.816;2022-08-21T08:14:46;101477.25;;;24.09;56.23
17254;BME280;32542;52.832;13.816;2022-08-21T08:17:51;101476.38;;;24.09;56.43
17254;BME280;32542;52.832;13.816;2022-08-21T08:20:54;101483.44;;;24.10;56.34
17254;BME280;32542;52.832;13.816;2022-08-21T08:23:57;101479.81;;;24.11;56.16
17254;BME280;32542;52.832;13.816;2022-08-21T08:27:20;101481.47;;;24.13;56.15
17254;BME280;32542;52.832;13.816;2022-08-21T08:30:23;101485.00;;;24.14;56.02
17254;BME280;32542;52.832;13.816;2022-08-21T08:33:33;101485.00;;;24.14;56.18
17254;BME280;32542;52.832;13.816;2022-08-21T08:36:37;101485.00;;;24.14;56.13
17254;BME280;32542;52.832;13.816;2022-08-21T08:39:42;101477.06;;;24.12;56.01
17254;BME280;32542;52.832;13.816;2022-08-21T08:42:46;101471.78;;;24.11;56.26
17254;BME280;32542;52.832;13.816;2022-08-21T08:45:53;101471.78;;;24.11;56.31
17254;BME280;32542;52.832;13.816;2022-08-21T08:49:03;101470.84;;;24.12;56.40
17254;BME280;32542;52.832;13.816;2022-08-21T08:52:14;101462.81;;;24.12;56.00
17254;BME280;32542;52.832;13.816;2022-08-21T08:55:23;101461.88;;;24.13;56.19
17254;BME280;32542;52.832;13.816;2022-08-21T08:58:31;101459.19;;;24.13;56.19
17254;BME280;32542;52.832;13.816;2022-08-21T09:01:34;101460.91;;;24.14;56.30
17254;BME280;32542;52.832;13.816;2022-08-21T09:04:42;101458.25;;;24.14;55.89
17254;BME280;32542;52.832;13.816;2022-08-21T09:07:53;101458.19;;;24.15;55.50
17254;BME280;32542;52.832;13.816;2022-08-21T09:11:02;101466.34;;;24.12;55.35
17254;BME280;32542;52.832;13.816;2022-08-21T09:14:16;101458.56;;;24.08;55.41
17254;BME280;32542;52.832;13.816;2022-08-21T09:17:39;101474.63;;;24.08;55.48
17254;BME280;32542;52.832;13.816;2022-08-21T09:21:06;101479.09;;;24.07;55.23
17254;BME280;32542;52.832;13.816;2022-08-21T09:24:25;101476.41;;;24.07;55.23
17254;BME280;32542;52.832;13.816;2022-08-21T09:27:31;101472.91;;;24.07;55.09
17254;BME280;32542;52.832;13.816;2022-08-21T09:30:34;101477.28;;;24.08;55.11
17254;BME280;32542;52.832;13.816;2022-08-21T09:33:37;101474.63;;;24.08;55.30
17254;BME280;32542;52.832;13.816;2022-08-21T09:36:44;101470.13;;;24.08;55.07
17254;BME280;32542;52.832;13.816;2022-08-21T09:39:48;101468.34;;;24.09;55.22
17254;BME280;32542;52.832;13.816;2022-08-21T09:42:56;101471.00;;;24.09;54.87
17254;BME280;32542;52.832;13.816;2022-08-21T09:46:08;101471.00;;;24.09;54.75
17254;BME280;32542;52.832;13.816;2022-08-21T09:49:26;101465.66;;;24.09;54.94
17254;BME280;32542;52.832;13.816;2022-08-21T09:52:31;101460.31;;;24.09;54.73
17254;BME280;32542;52.832;13.816;2022-08-21T09:55:46;101468.34;;;24.09;55.03
17254;BME280;32542;52.832;13.816;2022-08-21T09:59:18;101465.66;;;24.09;54.70
17254;BME280;32542;52.832;13.816;2022-08-21T10:02:25;101466.53;;;24.09;54.38
17254;BME280;32542;52.832;13.816;2022-08-21T10:05:28;101455.81;;;24.09;54.73
17254;BME280;32542;52.832;13.816;2022-08-21T10:08:34;101462.03;;;24.10;54.44
17254;BME280;32542;52.832;13.816;2022-08-21T10:11:37;101458.50;;;24.09;54.69
17254;BME280;32542;52.832;13.816;2022-08-21T10:14:48;101461.19;;;24.09;54.60
17254;BME280;32542;52.832;13.816;2022-08-21T10:18:04;101454.88;;;24.10;54.80
17254;BME280;32542;52.832;13.816;2022-08-21T10:21:17;101458.41;;;24.11;54.33
17254;BME280;32542;52.832;13.816;2022-08-21T10:24:28;101457.53;;;24.10;54.74
17254;BME280;32542;52.832;13.816;2022-08-21T10:27:39;101458.41;;;24.11;54.70
17254;BME280;32542;52.832;13.816;2022-08-21T10:30:50;101470.00;;;24.11;54.43
17254;BME280;32542;52.832;13.816;2022-08-21T10:34:05;101458.41;;;24.11;54.34
17254;BME280;32542;52.832;13.816;2022-08-21T10:37:18;101462.81;;;24.12;54.58
17254;BME280;32542;52.832;13.816;2022-08-21T10:40:29;101467.22;;;24.13;54.49
17254;BME280;32542;52.832;13.816;2022-08-21T10:43:39;101467.13;;;24.14;54.94
17254;BME280;32542;52.832;13.816;2022-08-21T10:46:49;101465.25;;;24.16;56.22
17254;BME280;32542;52.832;13.816;2022-08-21T10:49:58;101470.53;;;24.18;55.77
17254;BME280;32542;52.832;13.816;2022-08-21T10:53:15;101476.69;;;24.20;55.90
17254;BME280;32542;52.832;13.816;2022-08-21T10:56:25;101468.66;;;24.20;56.05
17254;BME280;32542;52.832;13.816;2022-08-21T10:59:33;101467.78;;;24.19;55.62
17254;BME280;32542;52.832;13.816;2022-08-21T11:02:44;101464.25;;;24.19;55.54
17254;BME280;32542;52.832;13.816;2022-08-21T11:05:54;101466.91;;;24.19;55.56
17254;BME280;32542;52.832;13.816;2022-08-21T11:09:04;101473.13;;;24.19;54.26
17254;BME280;32542;52.832;13.816;2022-08-21T11:12:19;101474.16;;;24.17;54.27
17254;BME280;32542;52.832;13.816;2022-08-21T11:15:34;101466.13;;;24.17;54.06
17254;BME280;32542;52.832;13.816;2022-08-21T11:18:42;101467.94;;;24.16;54.74
17254;BME280;32542;52.832;13.816;2022-08-21T11:21:50;101466.22;;;24.15;54.94
17254;BME280;32542;52.832;13.816;2022-08-21T11:24:58;101468.81;;;24.17;54.89
17254;BME280;32542;52.832;13.816;2022-08-21T11:28:08;101472.34;;;24.17;54.81
17254;BME280;32542;52.832;13.816;2022-08-21T11:31:27;101475.03;;;24.17;54.32
17254;BME280;32542;52.832;13.816;2022-08-21T11:34:44;101468.81;;;24.17;54.59
17254;BME280;32542;52.832;13.816;2022-08-21T11:38:00;101471.47;;;24.17;54.36
17254;BME280;32542;52.832;13.816;2022-08-21T11:41:18;101476.84;;;24.17;54.38
17254;BME280;32542;52.832;13.816;2022-08-21T11:44:31;101467.06;;;24.16;54.20
17254;BME280;32542;52.832;13.816;2022-08-21T11:47:51;101471.56;;;24.15;53.76
17254;BME280;32542;52.832;13.816;2022-08-21T11:50:58;101471.56;;;24.15;53.84
17254;BME280;32542;52.832;13.816;2022-08-21T11:54:08;101468.00;;;24.15;53.78
17254;BME280;32542;52.832;13.816;2022-08-21T11:57:21;101473.28;;;24.16;53.80
17254;BME280;32542;52.832;13.816;2022-08-21T12:00:30;101471.47;;;24.17;53.61
17254;BME280;32542;52.832;13.816;2022-08-21T12:03:38;101465.25;;;24.16;53.57
17254;BME280;32542;52.832;13.816;2022-08-21T12:06:43;101465.16;;;24.18;53.45
17254;BME280;32542;52.832;13.816;2022-08-21T12:09:57;101462.50;;;24.18;53.77
17254;BME280;32542;52.832;13.816;2022-08-21T12:13:07;101460.69;;;24.18;53.78
17254;BME280;32542;52.832;13.816;2022-08-21T12:16:14;101465.97;;;24.20;53.71
17254;BME280;32542;52.832;13.816;2022-08-21T12:19:30;101463.22;;;24.21;52.76
17254;BME280;32542;52.832;13.816;2022-08-21T12:22:38;101464.16;;;24.20;52.84
17254;BME280;32542;52.832;13.816;2022-08-21T12:25:46;101465.97;;;24.20;53.19
17254;BME280;32542;52.832;13.816;2022-08-21T12:28:49;101466.81;;;24.20;53.34
17254;BME280;32542;52.832;13.816;2022-08-21T12:31:57;101451.72;;;24.19;52.96
17254;BME280;32542;52.832;13.816;2022-08-21T12:35:02;101441.72;;;24.23;53.00
17254;BME280;32542;52.832;13.816;2022-08-21T12:38:18;101447.06;;;24.23;52.11
17254;BME280;32542;52.832;13.816;2022-08-21T12:41:26;101449.66;;;24.24;51.78
17254;BME280;32542;52.832;13.816;2022-08-21T12:44:35;101449.59;;;24.26;51.58
17254;BME280;32542;52.832;13.816;2022-08-21T12:47:48;101443.47;;;24.24;51.38
17254;BME280;32542;52.832;13.816;2022-08-21T12:50:54;101447.06;;;24.23;51.82
17254;BME280;32542;52.832;13.816;2022-08-21T12:53:59;101441.72;;;24.23;51.27
17254;BME280;32542;52.832;13.816;2022-08-21T12:57:04;101440.84;;;24.22;52.23
17254;BME280;32542;52.832;13.816;2022-08-21T13:00:11;101435.50;;;24.22;52.31
17254;BME280;32542;52.832;13.816;2022-08-21T13:03:16;101436.38;;;24.23;52.03
17254;BME280;32542;52.832;13.816;2022-08-21T13:06:21;101431.88;;;24.23;52.24
17254;BME280;32542;52.832;13.816;2022-08-21T13:09:30;101443.47;;;24.24;52.18
17254;BME280;32542;52.832;13.816;2022-08-21T13:12:35;101435.44;;;24.24;52.79
17254;BME280;32542;52.832;13.816;2022-08-21T13:15:40;101438.13;;;24.24;52.13
17254;BME280;32542;52.832;13.816;2022-08-21T13:18:55;101434.56;;;24.23;51.75
17254;BME280;32542;52.832;13.816;2022-08-21T13:22:00;101428.25;;;24.24;51.03
17254;BME280;32542;52.832;13.816;2022-08-21T13:25:28;101433.53;;;24.26;50.66
17254;BME280;32542;52.832;13.816;2022-08-21T13:28:35;101436.22;;;24.26;50.28
17254;BME280;32542;52.832;13.816;2022-08-21T13:31:40;101441.56;;;24.26;49.67
17254;BME280;32542;52.832;13.816;2022-08-21T13:34:45;101434.47;;;24.25;49.63
17254;BME280;32542;52.832;13.816;2022-08-21T13:37:55;101431.97;;;24.22;50.38
17254;BME280;32542;52.832;13.816;2022-08-21T13:41:02;101440.00;;;24.22;50.39
17254;BME280;32542;52.832;13.816;2022-08-21T13:44:15;101436.38;;;24.23;51.11
17254;BME280;32542;52.832;13.816;2022-08-21T13:47:21;101441.72;;;24.23;50.32
17254;BME280;32542;52.832;13.816;2022-08-21T13:50:26;101450.53;;;24.25;50.26
17254;BME280;32542;52.832;13.816;2022-08-21T13:53:31;101444.31;;;24.24;49.96
17254;BME280;32542;52.832;13.816;2022-08-21T13:56:42;101439.81;;;24.25;49.56
17254;BME280;32542;52.832;13.816;2022-08-21T13:59:45;101440.78;;;24.24;49.74
17254;BME280;32542;52.832;13.816;2022-08-21T14:02:52;101435.44;;;24.24;49.84
17254;BME280;32542;52.832;13.816;2022-08-21T14:05:57;101425.66;;;24.23;49.89
17254;BME280;32542;52.832;13.816;2022-08-21T14:09:08;101430.94;;;24.24;49.24
17254;BME280;32542;52.832;13.816;2022-08-21T14:12:13;101435.34;;;24.25;48.51
17254;BME280;32542;52.832;13.816;2022-08-21T14:15:25;101436.22;;;24.26;47.62
17254;BME280;32542;52.832;13.816;2022-08-21T14:18:30;101432.75;;;24.24;47.53
17254;BME280;32542;52.832;13.816;2022-08-21T14:21:37;101430.22;;;24.21;47.38
17254;BME280;32542;52.832;13.816;2022-08-21T14:24:40;101430.22;;;24.21;47.76
17254;BME280;32542;52.832;13.816;2022-08-21T14:27:48;101427.47;;;24.22;46.92
17254;BME280;32542;52.832;13.816;2022-08-21T14:30:53;101430.13;;;24.22;46.74
17254;BME280;32542;52.832;13.816;2022-08-21T14:33:57;101425.56;;;24.24;45.54
17254;BME280;32542;52.832;13.816;2022-08-21T14:37:01;101426.53;;;24.23;44.68
17254;BME280;32542;52.832;13.816;2022-08-21T14:40:05;101419.44;;;24.22;45.83
17254;BME280;32542;52.832;13.816;2022-08-21T14:43:09;101423.78;;;24.25;43.66
17254;BME280;32542;52.832;13.816;2022-08-21T14:46:23;101423.84;;;24.23;45.45
17254;BME280;32542;52.832;13.816;2022-08-21T14:49:27;101423.84;;;24.23;45.97
17254;BME280;32542;52.832;13.816;2022-08-21T14:52:32;101423.84;;;24.23;45.15
17254;BME280;32542;52.832;13.816;2022-08-21T14:55:36;101429.13;;;24.25;45.30
17254;BME280;32542;52.832;13.816;2022-08-21T14:58:54;101430.94;;;24.24;43.69
17254;BME280;32542;52.832;13.816;2022-08-21T15:02:02;101430.00;;;24.25;42.41
17254;BME280;32542;52.832;13.816;2022-08-21T15:05:06;101423.78;;;24.25;43.23
17254;BME280;32542;52.832;13.816;2022-08-21T15:08:11;101430.00;;;24.25;42.88
17254;BME280;32542;52.832;13.816;2022-08-21T15:11:17;101431.72;;;24.26;42.77
17254;BME280;32542;52.832;13.816;2022-08-21T15:14:40;101430.88;;;24.26;43.44
17254;BME280;32542;52.832;13.816;2022-08-21T15:17:43;101427.22;;;24.27;42.86
17254;BME280;32542;52.832;13.816;2022-08-21T15:20:49;101422.84;;;24.26;42.62
17254;BME280;32542;52.832;13.816;2022-08-21T15:23:54;101429.03;;;24.26;42.93
17254;BME280;32542;52.832;13.816;2022-08-21T15:26:59;101428.09;;;24.27;42.84
17254;BME280;32542;52.832;13.816;2022-08-21T15:30:03;101427.22;;;24.27;42.94
17254;BME280;32542;52.832;13.816;2022-08-21T15:33:07;101420.94;;;24.28;43.83
17254;BME280;32542;52.832;13.816;2022-08-21T15:36:12;101422.75;;;24.27;44.37
17254;BME280;32542;52.832;13.816;2022-08-21T15:39:16;101421.88;;;24.27;43.75
17254;BME280;32542;52.832;13.816;2022-08-21T15:42:26;101417.41;;;24.27;43.24
17254;BME280;32542;52.832;13.816;2022-08-21T15:45:30;101428.09;;;24.27;43.63
17254;BME280;32542;52.832;13.816;2022-08-21T15:48:33;101426.22;;;24.29;43.91
17254;BME280;32542;52.832;13.816;2022-08-21T15:51:36;101428.88;;;24.29;43.11
17254;BME280;32542;52.832;13.816;2022-08-21T15:54:45;101428.00;;;24.29;43.56
17254;BME280;32542;52.832;13.816;2022-08-21T15:57:51;101423.53;;;24.29;44.35
17254;BME280;32542;52.832;13.816;2022-08-21T16:01:00;101422.66;;;24.29;43.90
17254;BME280;32542;52.832;13.816;2022-08-21T16:04:04;101419.06;;;24.30;44.28